Map

Track Data

SID SEASON NUMBER BASIN SUBBASIN NAME ISO_TIME NATURE LAT LON WMO_WIND WMO_PRES WMO_AGENCY TRACK_TYPE DIST2LAND LANDFALL IFLAG USA_AGENCY USA_ATCF_ID USA_LAT USA_LON USA_RECORD USA_STATUS USA_WIND USA_PRES USA_SSHS USA_R34_NE USA_R34_SE USA_R34_SW USA_R34_NW USA_R50_NE USA_R50_SE USA_R50_SW USA_R50_NW USA_R64_NE USA_R64_SE USA_R64_SW USA_R64_NW USA_POCI USA_ROCI USA_RMW USA_EYE TOKYO_LAT TOKYO_LON TOKYO_GRADE TOKYO_WIND TOKYO_PRES TOKYO_R50_DIR TOKYO_R50_LONG TOKYO_R50_SHORT TOKYO_R30_DIR TOKYO_R30_LONG TOKYO_R30_SHORT TOKYO_LAND CMA_LAT CMA_LON CMA_CAT CMA_WIND CMA_PRES HKO_LAT HKO_LON HKO_CAT HKO_WIND HKO_PRES NEWDELHI_LAT NEWDELHI_LON NEWDELHI_GRADE NEWDELHI_WIND NEWDELHI_PRES NEWDELHI_CI NEWDELHI_DP NEWDELHI_POCI REUNION_LAT REUNION_LON REUNION_TYPE REUNION_WIND REUNION_PRES REUNION_TNUM REUNION_CI REUNION_RMW REUNION_R34_NE REUNION_R34_SE REUNION_R34_SW REUNION_R34_NW REUNION_R50_NE REUNION_R50_SE REUNION_R50_SW REUNION_R50_NW REUNION_R64_NE REUNION_R64_SE REUNION_R64_SW REUNION_R64_NW BOM_LAT BOM_LON BOM_TYPE BOM_WIND BOM_PRES BOM_TNUM BOM_CI BOM_RMW BOM_R34_NE BOM_R34_SE BOM_R34_SW BOM_R34_NW BOM_R50_NE BOM_R50_SE BOM_R50_SW BOM_R50_NW BOM_R64_NE BOM_R64_SE BOM_R64_SW BOM_R64_NW BOM_ROCI BOM_POCI BOM_EYE BOM_POS_METHOD BOM_PRES_METHOD NADI_LAT NADI_LON NADI_CAT NADI_WIND NADI_PRES WELLINGTON_LAT WELLINGTON_LON WELLINGTON_WIND WELLINGTON_PRES DS824_LAT DS824_LON DS824_STAGE DS824_WIND DS824_PRES TD9636_LAT TD9636_LON TD9636_STAGE TD9636_WIND TD9636_PRES TD9635_LAT TD9635_LON TD9635_WIND TD9635_PRES TD9635_ROCI NEUMANN_LAT NEUMANN_LON NEUMANN_CLASS NEUMANN_WIND NEUMANN_PRES MLC_LAT MLC_LON MLC_CLASS MLC_WIND MLC_PRES USA_GUST BOM_GUST BOM_GUST_PER REUNION_GUST REUNION_GUST_PER USA_SEAHGT USA_SEARAD_NE USA_SEARAD_SE USA_SEARAD_SW USA_SEARAD_NW STORM_SPEED STORM_DIR
1996260N14217 1996 84 EP CP NOT_NAMED 1996-09-15 18:00:00 NR 13.6000 -143.400 main 1382 1373 O_____________ jtwc_cp CP011996 13.6000 -143.400 -1 1 270
1996260N14217 1996 84 EP CP NOT_NAMED 1996-09-15 21:00:00 NR 13.6000 -143.455 main 1373 1373 P_____________ CP011996 13.1049 -143.310 -1 4 193
1996260N14217 1996 84 EP CP NOT_NAMED 1996-09-16 00:00:00 TS 13.2000 -143.500 30 hurdat_epa main 1396 1368 O_____________ hurdat_epa CP011996 12.8000 -143.400 TD 30 -1 6 223
1996260N14217 1996 84 EP CP NOT_NAMED 1996-09-16 03:00:00 TS 13.1641 -143.872 main 1359 1323 P_____________ CP011996 12.8101 -143.782 TD 27 -1 8 269
1996260N14217 1996 84 EP CP NOT_NAMED 1996-09-16 06:00:00 TS 13.1846 -144.300 25 hurdat_epa main 1323 1281 O_____________ hurdat_epa CP011996 13.0000 -144.300 TD 25 -1 8 279
1996260N14217 1996 84 EP CP NOT_NAMED 1996-09-16 09:00:00 TS 13.3017 -144.729 main 1281 1230 P_____________ CP011996 13.1998 -144.735 TD 25 -1 9 287
1996260N14217 1996 84 EP CP NOT_NAMED 1996-09-16 12:00:00 TS 13.4500 -145.200 25 hurdat_epa main 1223 1179 O_____________ hurdat_epa CP011996 13.4000 -145.200 TD 25 -1 10 282
1996260N14217 1996 84 EP CP NOT_NAMED 1996-09-16 15:00:00 TS 13.5108 -145.774 main 1170 1120 P_____________ CP011996 13.5076 -145.765 TD 27 -1 11 277
1996260N14217 1996 84 EP CP NOT_NAMED 1996-09-16 18:00:00 TS 13.5750 -146.325 30 hurdat_epa main 1120 1079 O_____________ hurdat_epa CP011996 13.6000 -146.300 TD 30 -1 10 283
1996260N14217 1996 84 EP CP NOT_NAMED 1996-09-16 21:00:00 TS 13.7355 -146.745 main 1079 1031 P_____________ CP011996 13.7574 -146.695 TD 30 -1 8 294
1996260N14217 1996 84 EP CP NOT_NAMED 1996-09-17 00:00:00 TS 13.9000 -147.075 30 hurdat_epa main 1031 1008 O_____________ hurdat_epa CP011996 13.9000 -147.000 TD 30 -1 6 292
1996260N14217 1996 84 EP CP NOT_NAMED 1996-09-17 03:00:00 TS 13.9805 -147.356 main 999 982 P_____________ CP011996 13.9499 -147.258 TD 30 -1 5 286
1996260N14217 1996 84 EP CP NOT_NAMED 1996-09-17 06:00:00 TS 14.0500 -147.600 30 hurdat_epa main 975 952 O_____________ hurdat_epa CP011996 14.0000 -147.500 TD 30 -1 5 291
1996260N14217 1996 84 EP CP NOT_NAMED 1996-09-17 09:00:00 TS 14.1637 -147.852 main 943 920 P_____________ CP011996 14.1350 -147.800 TD 30 -1 5 297
1996260N14217 1996 84 EP CP NOT_NAMED 1996-09-17 12:00:00 TS 14.3000 -148.100 30 hurdat_epa main 920 896 O_____________ hurdat_epa CP011996 14.3000 -148.100 TD 30 -1 5 303
1996260N14217 1996 84 EP CP NOT_NAMED 1996-09-17 15:00:00 TS 14.4535 -148.305 main 889 857 P_____________ CP011996 14.4572 -148.313 TD 30 -1 6 302
1996260N14217 1996 84 EP CP NOT_NAMED 1996-09-17 18:00:00 TS 14.6000 -148.600 30 hurdat_epa main 857 809 O_____________ hurdat_epa CP011996 14.6000 -148.600 TD 30 -1 8 290
1996260N14217 1996 84 EP CP NOT_NAMED 1996-09-17 21:00:00 TS 14.7340 -149.122 main 809 755 P_____________ CP011996 14.7377 -149.112 TD 30 -1 11 281
1996260N14217 1996 84 EP CP NOT_NAMED 1996-09-18 00:00:00 TS 14.8000 -149.700 30 hurdat_epa main 755 724 O_____________ hurdat_epa CP011996 14.8000 -149.700 TD 30 -1 10 272
1996260N14217 1996 84 EP CP NOT_NAMED 1996-09-18 03:00:00 TS 14.7660 -150.136 main 724 702 P_____________ CP011996 14.7373 -150.208 TD 30 -1 9 260
1996260N14217 1996 84 EP CP NOT_NAMED 1996-09-18 06:00:00 TS 14.6500 -150.575 30 hurdat_epa main 695 678 O_____________ hurdat_epa CP011996 14.6000 -150.700 TD 30 -1 10 252
1996260N14217 1996 84 EP CP NOT_NAMED 1996-09-18 09:00:00 TS 14.4638 -151.121 main 678 660 P_____________ CP011996 14.4348 -151.193 TD 30 -1 11 252
1996260N14217 1996 84 EP CP NOT_NAMED 1996-09-18 12:00:00 TS 14.3000 -151.700 30 hurdat_epa main 660 633 O_____________ hurdat_epa CP011996 14.3000 -151.700 TD 30 -1 11 260
1996260N14217 1996 84 EP CP NOT_NAMED 1996-09-18 15:00:00 TS 14.2641 -152.241 main 633 600 P_____________ CP011996 14.2699 -152.235 TD 30 -1 11 270
1996260N14217 1996 84 EP CP NOT_NAMED 1996-09-18 18:00:00 TS 14.3000 -152.800 30 hurdat_epa main 600 570 O_____________ hurdat_epa CP011996 14.3000 -152.800 TD 30 -1 11 274
1996260N14217 1996 84 EP CP NOT_NAMED 1996-09-18 21:00:00 TS 14.3493 -153.410 main 570 535 P_____________ CP011996 14.3349 -153.393 TD 30 -1 12 276
1996260N14217 1996 84 EP CP NOT_NAMED 1996-09-19 00:00:00 TS 14.4250 -154.050 30 hurdat_epa main 531 503 O_____________ hurdat_epa CP011996 14.4000 -154.000 TD 30 -1 13 277
1996260N14217 1996 84 EP CP NOT_NAMED 1996-09-19 03:00:00 TS 14.4992 -154.693 main 503 483 P_____________ CP011996 14.4847 -154.578 TD 30 -1 13 278
1996260N14217 1996 84 EP CP NOT_NAMED 1996-09-19 06:00:00 TS 14.6000 -155.350 30 hurdat_epa main 482 459 O_____________ hurdat_epa CP011996 14.6000 -155.200 TD 30 -1 13 281
1996260N14217 1996 84 EP CP NOT_NAMED 1996-09-19 09:00:00 TS 14.7632 -156.040 main 459 453 P_____________ CP011996 14.7652 -155.957 TD 30 -1 13 283
1996260N14217 1996 84 EP CP NOT_NAMED 1996-09-19 12:00:00 TS 14.9000 -156.700 30 hurdat_epa main 460 460 O_____________ hurdat_epa CP011996 14.9000 -156.700 TD 30 -1 12 277
1996260N14217 1996 84 EP CP NOT_NAMED 1996-09-19 15:00:00 TS 14.9146 -157.254 main 478 478 P_____________ CP011996 14.9145 -157.265 TD 30 -1 11 270
1996260N14217 1996 84 EP CP NOT_NAMED 1996-09-19 18:00:00 TS 14.9000 -157.800 30 hurdat_epa main 500 500 O_____________ hurdat_epa CP011996 14.9000 -157.800 TD 30 -1 11 271
1996260N14217 1996 84 EP CP NOT_NAMED 1996-09-19 21:00:00 TS 14.9274 -158.435 main 531 531 P_____________ CP011996 14.9274 -158.435 TD 30 -1 13 275
1996260N14217 1996 84 EP CP NOT_NAMED 1996-09-20 00:00:00 TS 15.0000 -159.100 30 hurdat_epa main 566 566 O_____________ hurdat_epa CP011996 15.0000 -159.100 TD 30 -1 13 279
1996260N14217 1996 84 EP CP NOT_NAMED 1996-09-20 03:00:00 TS 15.1274 -159.758 main 609 608 P_____________ CP011996 15.1274 -159.758 TD 27 -1 13 283
1996260N14217 1996 84 EP CP NOT_NAMED 1996-09-20 06:00:00 TS 15.3000 -160.400 25 hurdat_epa main 639 639 O_____________ hurdat_epa CP011996 15.3000 -160.400 TD 25 -1 13 286
1996260N14217 1996 84 EP CP NOT_NAMED 1996-09-20 09:00:00 TS 15.4699 -161.023 main 674 674 P_____________ CP011996 15.4699 -161.023 TD 25 -1 12 289
1996260N14217 1996 84 EP CP NOT_NAMED 1996-09-20 12:00:00 TS 15.7000 -161.600 25 hurdat_epa main 714 709 O_____________ hurdat_epa CP011996 15.7000 -161.600 TD 25 -1 12 298
1996260N14217 1996 84 EP CP NOT_NAMED 1996-09-20 15:00:00 TS 16.0227 -162.117 main 713 687 P_____________ CP011996 16.0227 -162.117 TD 25 -1 12 306
1996260N14217 1996 84 EP CP NOT_NAMED 1996-09-20 18:00:00 TS 16.4000 -162.600 25 hurdat_epa main 691 O_____________ hurdat_epa CP011996 16.4000 -162.600 TD 25 -1 12 309

About IBTrACS Database

This database is a web-friendly format of International Best Track Archive for Climate Stewardship (IBTrACS), a global best track data archive curated by NOAA dating back to 1842.

Updated: 2021-11-26